Decoded Metar for GMTT (TANGER in MOROCCO) (IATA:TNG) | Meteo·Mobile Aviation Weather
aviador You're here:

GMTT Decoded Metar

TANGER in MOROCCO
Report Time2018-12-11 10:00:00
UTC Time2018-12-11 10:07:59
Flight Rules mvfr MVFR
Wind180° at 08 kt
W.Decomp.*RWY 10: 1.1 kt HW 7.9 kt RCW
W.Rank180° ranks 27
Current wind is above 180° avg. (6.1)
Visibility6000 m
Phenomena:N/A
Clouds:Few 013 Hf
Broken 030 Hf
Expected CloudBase > 1,600 ft AGL from Temp-Dew spread
Ceiling3,000 ft
Temp16°C (ISA +1)
Dew Point12°C (77% RH)
AAT13.7°C
QNH1025 hPa
Density Alt-13 ft
Elevation69 ft
Report Wrong Elevation
Raw Report
METAR GMTT 111000Z 18008KT 6000 FEW013 BKN030 16/12 Q1025 NOSIG=

Extra information for GMTT:More info

Metar Taf Metar & Taf Last 4 Metars F.Rules Stats Wind Profile Meteogram Temp Stats Airport Information Weather charts Add Link Nearby VenuesMetar ALERT Operation Metar Decoded Social comments